Time;durP1;ratioP1;P1;durP2;ratioP2;P2;SDS_P1;SDS_P2;PMS_P1;PMS_P2;Temp;Humidity;BMP_temperature;BMP_pressure;BME280_temperature;BME280_humidity;BME280_pressure;Samples;Min_cycle;Max_cycle;Signal;HPM_P1;HPM_P2
2021/12/11 00:00:58;;;;;;;;;;;;;;;13.81;47.77;100623.56;5025180;28;19980;-85
2021/12/11 00:03:29;;;;;;;;;;;;;;;14.16;47.33;100630.34;5024803;28;19913;-84
2021/12/11 00:05:55;;;;;;;;;;;;;;;14.39;46.75;100638.84;5041911;28;19917;-85
2021/12/11 00:08:23;;;;;;;;;;;;;;;14.35;46.46;100638.19;5043932;28;19948;-84
2021/12/11 00:11:14;;;;;;;;;;;;;;;14.36;46.58;100639.94;5028449;28;19952;-84
2021/12/11 00:13:41;;;;;;;;;;;;;;;14.30;46.58;100640.34;5023824;28;19991;-84
2021/12/11 00:16:08;;;;;;;;;;;;;;;14.48;46.49;100649.13;5026679;28;19939;-85
2021/12/11 00:18:33;;;;;;;;;;;;;;;14.44;46.32;100659.34;5027950;28;19917;-85
2021/12/11 00:21:07;;;;;;;;;;;;;;;14.55;46.14;100669.50;5027573;28;20390;-86
2021/12/11 00:23:49;;;;;;;;;;;;;;;14.56;46.16;100671.25;5027117;28;20008;-83
2021/12/11 00:26:22;;;;;;;;;;;;;;;14.18;47.36;100680.97;5027364;28;19923;-84
2021/12/11 00:28:48;;;;;;;;;;;;;;;14.25;46.70;100673.31;5027195;28;20412;-85
2021/12/11 00:31:14;;;;;;;;;;;;;;;14.28;46.80;100692.16;5045328;28;19932;-85
2021/12/11 00:33:39;;;;;;;;;;;;;;;14.48;46.72;100689.97;5027976;28;19913;-82
2021/12/11 00:36:13;;;;;;;;;;;;;;;14.49;46.77;100692.59;5028364;28;20059;-83
2021/12/11 00:38:38;;;;;;;;;;;;;;;14.28;47.15;100704.88;5027913;28;19917;-84
2021/12/11 00:41:05;;;;;;;;;;;;;;;13.50;48.39;100705.28;5027233;28;19923;-83
2021/12/11 00:43:34;;;;;;;;;;;;;;;13.74;48.15;100711.91;5045003;28;19928;-84
2021/12/11 00:45:59;;;;;;;;;;;;;;;13.97;47.62;100715.03;5027676;28;19917;-84
2021/12/11 00:48:26;;;;;;;;;;;;;;;14.06;47.28;100716.28;5026470;28;19940;-82
2021/12/11 00:50:54;;;;;;;;;;;;;;;14.08;47.32;100728.78;5043637;28;20050;-83
2021/12/11 00:53:20;;;;;;;;;;;;;;;13.90;47.67;100727.25;5027559;28;20295;-83
2021/12/11 00:55:47;;;;;;;;;;;;;;;14.15;47.42;100735.59;5027200;28;19917;-84
2021/12/11 00:58:18;;;;;;;;;;;;;;;14.23;46.92;100736.94;5027338;28;19913;-83
2021/12/11 01:00:53;;;;;;;;;;;;;;;14.20;46.80;100742.59;5027545;28;19925;-83
2021/12/11 01:03:25;;;;;;;;;;;;;;;14.35;46.87;100738.88;5045232;28;19909;-84
2021/12/11 01:05:52;;;;;;;;;;;;;;;14.36;46.46;100748.78;5026320;28;19929;-83
2021/12/11 01:08:22;;;;;;;;;;;;;;;14.47;46.19;100751.66;5044941;28;19917;-83
2021/12/11 01:10:48;;;;;;;;;;;;;;;14.53;46.08;100756.72;5026039;28;19956;-85
2021/12/11 01:13:18;;;;;;;;;;;;;;;14.53;46.13;100766.75;5028012;28;19940;-84
2021/12/11 01:15:47;;;;;;;;;;;;;;;14.07;47.29;100767.88;5028529;28;19917;-84
2021/12/11 01:21:13;;;;;;;;;;;;;;;14.22;47.28;100782.34;5045920;28;19924;-84
2021/12/11 01:26:09;;;;;;;;;;;;;;;14.09;47.43;100779.53;5045570;28;19979;-85
2021/12/11 01:28:35;;;;;;;;;;;;;;;14.43;46.67;100782.81;5027247;28;19948;-84
2021/12/11 01:31:02;;;;;;;;;;;;;;;14.47;46.39;100789.78;5028019;28;19925;-84
2021/12/11 01:33:27;;;;;;;;;;;;;;;14.42;46.37;100786.50;5028276;28;19943;-84
2021/12/11 01:35:53;;;;;;;;;;;;;;;14.47;46.39;100795.22;5046156;28;19917;-81
2021/12/11 01:38:21;;;;;;;;;;;;;;;14.39;46.54;100803.03;5028961;28;19963;-84
2021/12/11 01:40:48;;;;;;;;;;;;;;;14.48;46.36;100810.59;5028450;28;20405;-83
2021/12/11 01:43:13;;;;;;;;;;;;;;;14.52;46.28;100817.59;5046238;28;19947;-84
2021/12/11 01:45:43;;;;;;;;;;;;;;;14.29;46.88;100820.91;5027804;28;19917;-84
2021/12/11 01:48:08;;;;;;;;;;;;;;;14.43;46.48;100828.19;5027210;28;20321;-83
2021/12/11 01:50:36;;;;;;;;;;;;;;;13.75;47.68;100835.13;5025934;28;19944;-82
2021/12/11 01:53:11;;;;;;;;;;;;;;;14.21;46.87;100837.72;5043020;28;19925;-84
2021/12/11 01:55:48;;;;;;;;;;;;;;;14.33;46.70;100846.97;5042008;28;19917;-83
2021/12/11 01:58:16;;;;;;;;;;;;;;;14.43;46.27;100847.25;5041811;28;19971;-83
2021/12/11 02:00:48;;;;;;;;;;;;;;;14.23;46.79;100849.38;5040263;28;19933;-84
2021/12/11 02:03:18;;;;;;;;;;;;;;;14.42;46.14;100854.53;5042558;28;19917;-84
2021/12/11 02:05:44;;;;;;;;;;;;;;;14.36;46.23;100847.63;5041087;28;19963;-84
2021/12/11 02:08:12;;;;;;;;;;;;;;;14.30;46.26;100861.63;5040899;28;19967;-83
2021/12/11 02:10:42;;;;;;;;;;;;;;;14.22;46.27;100863.97;5041292;28;19917;-82
2021/12/11 02:13:11;;;;;;;;;;;;;;;13.94;46.90;100859.38;5041446;28;19967;-84
2021/12/11 02:15:46;;;;;;;;;;;;;;;14.08;46.96;100872.09;5041456;28;19921;-83
2021/12/11 02:18:17;;;;;;;;;;;;;;;14.07;46.68;100871.25;5041254;28;19975;-82
2021/12/11 02:20:56;;;;;;;;;;;;;;;14.04;46.62;100875.97;5041673;28;19959;-84
2021/12/11 02:23:24;;;;;;;;;;;;;;;14.03;47.05;100876.97;5041865;28;20384;-84
2021/12/11 02:25:50;;;;;;;;;;;;;;;14.14;46.76;100880.75;5025645;28;19905;-83
2021/12/11 02:28:27;;;;;;;;;;;;;;;14.21;46.59;100885.84;5041367;28;19960;-84
2021/12/11 02:31:03;;;;;;;;;;;;;;;14.33;46.34;100887.78;5026379;28;19917;-83
2021/12/11 02:33:52;;;;;;;;;;;;;;;14.41;46.45;100900.91;5026550;28;20280;-84
2021/12/11 02:36:18;;;;;;;;;;;;;;;13.85;47.68;100908.88;5040931;28;19917;-83
2021/12/11 02:38:47;;;;;;;;;;;;;;;14.02;47.29;100916.00;5025446;28;19984;-84
2021/12/11 02:41:19;;;;;;;;;;;;;;;13.87;47.47;100912.38;5042379;28;19964;-84
2021/12/11 02:43:50;;;;;;;;;;;;;;;13.83;47.32;100912.56;5042041;28;19980;-83
2021/12/11 02:46:30;;;;;;;;;;;;;;;13.47;48.79;100916.50;5041658;28;19925;-83
2021/12/11 02:49:03;;;;;;;;;;;;;;;13.64;48.35;100922.78;5041112;28;19921;-83
2021/12/11 02:51:38;;;;;;;;;;;;;;;13.70;47.74;100927.00;5041148;28;19921;-84
2021/12/11 02:54:06;;;;;;;;;;;;;;;12.39;51.66;100936.09;5024445;28;19917;-83
2021/12/11 02:56:39;;;;;;;;;;;;;;;13.23;49.73;100931.50;5025517;28;19960;-82
2021/12/11 02:59:07;;;;;;;;;;;;;;;13.11;49.53;100939.34;5025987;28;19923;-83
2021/12/11 03:01:36;;;;;;;;;;;;;;;12.98;50.03;100934.72;5023926;28;19986;-82
2021/12/11 03:04:17;;;;;;;;;;;;;;;13.12;49.05;100946.56;5041246;28;20349;-83
2021/12/11 03:06:45;;;;;;;;;;;;;;;13.32;48.88;100947.25;5039274;28;19961;-83
2021/12/11 03:09:12;;;;;;;;;;;;;;;13.27;49.23;100933.94;5040575;28;19924;-83
2021/12/11 03:11:38;;;;;;;;;;;;;;;12.92;50.47;100946.78;5025268;28;19981;-84
2021/12/11 03:14:04;;;;;;;;;;;;;;;13.01;50.33;100932.69;5025060;28;19972;-84
2021/12/11 03:16:31;;;;;;;;;;;;;;;12.69;51.23;100934.50;5023676;28;19917;-84
2021/12/11 03:18:59;;;;;;;;;;;;;;;12.61;51.47;100943.06;5041407;28;20189;-82
2021/12/11 03:21:25;;;;;;;;;;;;;;;13.11;50.60;100942.06;5024557;28;19923;-83
2021/12/11 03:23:51;;;;;;;;;;;;;;;12.93;50.74;100940.41;5025250;28;20015;-84
2021/12/11 03:26:16;;;;;;;;;;;;;;;12.67;51.43;100950.88;5025198;28;19924;-83
2021/12/11 03:28:41;;;;;;;;;;;;;;;12.58;51.76;100951.38;5041206;28;19917;-82
2021/12/11 03:31:08;;;;;;;;;;;;;;;12.82;51.04;100953.69;5025240;28;19971;-82
2021/12/11 03:33:39;;;;;;;;;;;;;;;12.45;52.62;100955.72;5023644;28;20010;-82
2021/12/11 03:36:07;;;;;;;;;;;;;;;13.33;50.13;100959.88;5041057;28;19917;-83
2021/12/11 03:38:33;;;;;;;;;;;;;;;13.58;49.22;100958.50;5024948;28;19963;-84
2021/12/11 03:41:00;;;;;;;;;;;;;;;13.39;49.16;100962.28;5025003;28;19992;-84
2021/12/11 03:43:26;;;;;;;;;;;;;;;13.67;48.98;100973.38;5025995;28;19917;-83
2021/12/11 03:45:53;;;;;;;;;;;;;;;13.21;49.76;100972.31;5025201;28;20401;-83
2021/12/11 03:48:21;;;;;;;;;;;;;;;13.27;50.64;100963.81;5025329;28;19954;-82
2021/12/11 03:50:47;;;;;;;;;;;;;;;13.11;50.84;100971.94;5040795;28;19921;-83
2021/12/11 03:53:13;;;;;;;;;;;;;;;11.90;54.21;100973.91;5024259;28;20024;-82
2021/12/11 03:55:41;;;;;;;;;;;;;;;12.00;54.67;100977.94;5024070;28;19929;-84
2021/12/11 03:58:07;;;;;;;;;;;;;;;12.64;52.60;100990.88;5023947;28;19959;-83
2021/12/11 04:00:35;;;;;;;;;;;;;;;12.47;53.16;100980.91;5024326;28;19917;-83
2021/12/11 04:03:05;;;;;;;;;;;;;;;10.87;59.51;100973.50;5024641;28;19997;-82
2021/12/11 04:05:31;;;;;;;;;;;;;;;11.73;57.14;100976.56;5023952;28;19944;-82
2021/12/11 04:07:57;;;;;;;;;;;;;;;11.59;57.94;100967.28;5022076;28;19918;-83
2021/12/11 04:10:23;;;;;;;;;;;;;;;11.89;55.89;100980.25;5037783;28;19917;-83
2021/12/11 04:12:48;;;;;;;;;;;;;;;11.11;58.32;100979.56;5038765;28;19928;-83
2021/12/11 04:15:16;;;;;;;;;;;;;;;11.63;57.97;100976.16;5020617;28;19917;-83
2021/12/11 04:17:42;;;;;;;;;;;;;;;10.68;59.48;100982.47;5021644;28;19932;-83
2021/12/11 04:20:09;;;;;;;;;;;;;;;11.39;57.99;100983.69;5021386;28;19917;-83
2021/12/11 04:22:34;;;;;;;;;;;;;;;11.67;56.45;100986.78;5039313;28;19917;-84
2021/12/11 04:24:59;;;;;;;;;;;;;;;12.20;54.65;100995.00;5021289;28;19924;-82
2021/12/11 04:27:25;;;;;;;;;;;;;;;11.78;56.66;100996.22;5037417;28;19924;-84
2021/12/11 04:29:51;;;;;;;;;;;;;;;11.56;57.10;100989.13;5021359;28;19940;-84
2021/12/11 04:32:16;;;;;;;;;;;;;;;11.80;56.59;100994.28;5021297;28;19917;-84
2021/12/11 04:34:43;;;;;;;;;;;;;;;12.31;54.72;100995.31;5037529;28;19925;-82
2021/12/11 04:37:15;;;;;;;;;;;;;;;11.97;55.95;101016.03;5039104;28;19980;-83
2021/12/11 04:39:42;;;;;;;;;;;;;;;12.44;54.62;101006.41;5021611;28;19918;-84
2021/12/11 04:42:23;;;;;;;;;;;;;;;12.97;53.61;101012.59;5039886;28;19917;-84
2021/12/11 04:44:49;;;;;;;;;;;;;;;11.70;57.93;101013.72;5022782;28;19917;-83
2021/12/11 04:47:30;;;;;;;;;;;;;;;12.28;56.50;101006.31;5042553;28;19924;-85
2021/12/11 04:50:00;;;;;;;;;;;;;;;13.33;52.95;101014.22;5024734;28;19917;-84
2021/12/11 04:52:47;;;;;;;;;;;;;;;12.96;53.53;101020.84;5022034;28;19944;-84
2021/12/11 04:55:29;;;;;;;;;;;;;;;13.51;51.36;101022.31;5025938;28;19921;-83
2021/12/11 05:11:16;;;;;;;;;;;;;;;14.06;49.09;101021.81;5042167;28;19976;-84
2021/12/11 05:13:43;;;;;;;;;;;;;;;13.85;49.64;101021.25;5041099;28;19921;-83
2021/12/11 05:16:10;;;;;;;;;;;;;;;13.79;49.67;101027.91;5041343;28;19930;-84
2021/12/11 05:18:37;;;;;;;;;;;;;;;13.39;51.50;101030.22;5023441;28;19917;-84
2021/12/11 05:21:06;;;;;;;;;;;;;;;13.28;51.54;101028.03;5041364;28;20370;-84
2021/12/11 05:23:33;;;;;;;;;;;;;;;13.20;52.13;101035.75;5040382;28;19917;-84
2021/12/11 05:25:59;;;;;;;;;;;;;;;12.93;53.08;101038.16;5023293;28;19960;-84
2021/12/11 05:28:24;;;;;;;;;;;;;;;12.73;54.36;101036.53;5023702;28;20317;-83
2021/12/11 05:30:50;;;;;;;;;;;;;;;12.33;55.96;101044.91;5039995;28;20010;-84
2021/12/11 05:33:16;;;;;;;;;;;;;;;12.96;55.01;101038.00;5040844;28;19921;-84
2021/12/11 05:35:42;;;;;;;;;;;;;;;12.64;54.88;101046.03;5023129;28;20290;-84
2021/12/11 05:38:10;;;;;;;;;;;;;;;12.51;56.02;101048.50;5024656;28;19924;-85
2021/12/11 05:40:37;;;;;;;;;;;;;;;12.54;56.37;101053.78;5024867;28;19917;-85
2021/12/11 05:43:03;;;;;;;;;;;;;;;11.84;59.29;101058.25;5024742;28;19968;-85
2021/12/11 05:45:28;;;;;;;;;;;;;;;11.92;58.62;101055.16;5025765;28;19918;-85
2021/12/11 05:47:53;;;;;;;;;;;;;;;12.11;59.45;101055.13;5041552;28;19917;-85
2021/12/11 05:50:23;;;;;;;;;;;;;;;11.85;60.59;101065.41;5025308;28;19917;-85
2021/12/11 05:52:49;;;;;;;;;;;;;;;11.73;60.42;101072.31;5056727;28;19948;-85
2021/12/11 05:55:17;;;;;;;;;;;;;;;12.52;57.23;101077.41;5054293;28;19932;-86
2021/12/11 05:57:50;;;;;;;;;;;;;;;12.02;59.52;101075.47;5053177;28;19917;-84
2021/12/11 06:00:16;;;;;;;;;;;;;;;12.25;58.70;101079.72;5052451;28;19931;-85
2021/12/11 06:02:42;;;;;;;;;;;;;;;12.61;57.58;101086.91;5052189;28;20388;-85
2021/12/11 06:05:12;;;;;;;;;;;;;;;12.56;57.13;101094.41;5025173;28;19918;-85
2021/12/11 06:07:42;;;;;;;;;;;;;;;12.64;57.02;101103.03;5022157;28;19917;-83
2021/12/11 06:10:10;;;;;;;;;;;;;;;12.35;57.36;101104.53;5023022;28;19917;-86
2021/12/11 06:12:36;;;;;;;;;;;;;;;12.82;56.79;101116.59;5022631;28;20374;-86
2021/12/11 06:15:01;;;;;;;;;;;;;;;12.24;58.40;101113.22;5021580;28;19921;-85
2021/12/11 06:17:32;;;;;;;;;;;;;;;12.32;58.00;101112.81;5049938;28;19920;-85
2021/12/11 06:19:58;;;;;;;;;;;;;;;12.76;56.59;101125.97;5059298;28;19970;-85
2021/12/11 06:22:27;;;;;;;;;;;;;;;12.34;58.28;101135.34;5059164;28;20016;-86
2021/12/11 06:24:53;;;;;;;;;;;;;;;12.79;57.48;101141.19;5058739;28;19916;-86
2021/12/11 06:27:19;;;;;;;;;;;;;;;12.59;57.53;101144.00;5058650;28;19917;-86
2021/12/11 06:29:44;;;;;;;;;;;;;;;12.45;57.88;101156.50;5058991;28;19950;-85
2021/12/11 06:32:09;;;;;;;;;;;;;;;13.26;55.97;101159.53;5057737;28;20389;-87
2021/12/11 06:34:36;;;;;;;;;;;;;;;12.21;59.10;101170.31;5059326;28;19917;-85
2021/12/11 06:37:02;;;;;;;;;;;;;;;12.47;58.96;101182.63;5058532;28;19935;-84
2021/12/11 06:39:28;;;;;;;;;;;;;;;11.95;61.01;101182.47;5059045;28;19943;-85
2021/12/11 06:41:58;;;;;;;;;;;;;;;11.85;62.58;101193.72;5059484;28;20370;-84
2021/12/11 06:44:27;;;;;;;;;;;;;;;11.47;63.06;101201.81;5058320;28;19984;-85
2021/12/11 06:46:54;;;;;;;;;;;;;;;11.87;63.06;101197.22;5057644;28;19928;-84
2021/12/11 06:49:19;;;;;;;;;;;;;;;11.82;62.66;101195.66;5042544;28;19956;-85
2021/12/11 06:51:44;;;;;;;;;;;;;;;12.69;59.93;101209.53;5058901;28;19928;-85
2021/12/11 06:54:10;;;;;;;;;;;;;;;12.64;58.39;101222.47;5042311;28;20392;-85
2021/12/11 06:56:36;;;;;;;;;;;;;;;12.82;57.17;101225.19;5059044;28;19923;-83
2021/12/11 06:59:02;;;;;;;;;;;;;;;13.79;54.10;101228.28;5058096;28;19917;-85
2021/12/11 07:01:28;;;;;;;;;;;;;;;12.93;56.34;101231.84;5041204;28;19932;-87
2021/12/11 07:03:54;;;;;;;;;;;;;;;13.44;53.58;101245.53;5060841;28;19912;-85
2021/12/11 07:06:20;;;;;;;;;;;;;;;12.76;56.05;101248.13;5041105;28;19927;-89
2021/12/11 07:08:47;;;;;;;;;;;;;;;13.24;55.20;101253.81;5059415;28;19917;-85
2021/12/11 07:11:12;;;;;;;;;;;;;;;13.36;53.63;101258.66;5058829;28;20385;-85
2021/12/11 07:13:39;;;;;;;;;;;;;;;13.54;52.98;101262.25;5058813;28;19916;-87
2021/12/11 07:16:04;;;;;;;;;;;;;;;13.37;52.86;101263.13;5059057;28;20377;-85
2021/12/11 07:18:31;;;;;;;;;;;;;;;12.91;54.46;101276.34;5057942;28;19936;-85
2021/12/11 07:20:56;;;;;;;;;;;;;;;12.98;54.30;101283.19;5058890;28;19916;-86
2021/12/11 07:23:21;;;;;;;;;;;;;;;12.56;55.94;101284.38;5057547;28;20405;-86
2021/12/11 07:25:50;;;;;;;;;;;;;;;13.04;54.17;101299.19;5058286;28;19917;-86
2021/12/11 07:28:17;;;;;;;;;;;;;;;12.63;55.47;101296.69;5057831;28;19916;-86
2021/12/11 07:30:44;;;;;;;;;;;;;;;13.03;54.52;101311.03;5040819;28;20420;-85
2021/12/11 07:33:10;;;;;;;;;;;;;;;13.17;53.77;101313.03;5056799;28;19962;-84
2021/12/11 07:35:37;;;;;;;;;;;;;;;12.79;54.60;101307.69;5056775;28;19913;-85
2021/12/11 07:38:03;;;;;;;;;;;;;;;13.30;52.74;101316.88;5058934;28;19924;-85
2021/12/11 07:40:35;;;;;;;;;;;;;;;12.87;54.01;101329.91;5039896;28;20302;-85
2021/12/11 07:43:01;;;;;;;;;;;;;;;13.64;51.23;101325.16;5057626;28;19968;-85
2021/12/11 07:45:26;;;;;;;;;;;;;;;13.15;53.14;101335.78;5058647;28;20206;-85
2021/12/11 07:47:52;;;;;;;;;;;;;;;13.24;52.79;101346.19;5058266;28;19920;-85
2021/12/11 07:50:18;;;;;;;;;;;;;;;13.30;51.91;101352.22;5041349;28;19917;-85
2021/12/11 07:52:43;;;;;;;;;;;;;;;12.86;53.42;101351.72;5063000;28;19921;-85
2021/12/11 07:55:09;;;;;;;;;;;;;;;13.06;53.41;101365.19;5064182;28;19920;-85
2021/12/11 07:57:35;;;;;;;;;;;;;;;13.56;51.07;101360.03;5059258;28;20011;-85
2021/12/11 08:00:00;;;;;;;;;;;;;;;13.64;50.84;101368.66;5057486;28;19955;-85
2021/12/11 08:02:25;;;;;;;;;;;;;;;13.87;50.16;101369.28;5057412;28;19929;-85
2021/12/11 08:04:50;;;;;;;;;;;;;;;14.21;49.23;101381.09;5056248;28;19917;-85
2021/12/11 08:07:16;;;;;;;;;;;;;;;14.01;49.25;101388.47;5056347;28;19962;-85
2021/12/11 08:09:43;;;;;;;;;;;;;;;13.39;50.98;101398.91;5056291;28;20389;-84
2021/12/11 08:12:08;;;;;;;;;;;;;;;13.44;51.89;101414.03;5057186;28;20390;-83
2021/12/11 08:14:33;;;;;;;;;;;;;;;13.15;52.19;101409.13;5055143;28;19917;-84
2021/12/11 08:17:04;;;;;;;;;;;;;;;13.52;51.84;101420.94;5055846;28;19940;-88
2021/12/11 08:19:29;;;;;;;;;;;;;;;14.10;50.09;101420.63;5056423;28;20337;-86
2021/12/11 08:21:56;;;;;;;;;;;;;;;14.64;48.07;101428.59;5041032;28;19917;-88
2021/12/11 08:24:21;;;;;;;;;;;;;;;14.85;47.19;101431.97;5056265;28;19916;-85
2021/12/11 08:26:49;;;;;;;;;;;;;;;13.99;49.17;101437.53;5039790;28;19989;-85
2021/12/11 08:29:15;;;;;;;;;;;;;;;14.52;48.43;101440.16;5059736;28;19917;-85
2021/12/11 08:31:42;;;;;;;;;;;;;;;14.56;47.77;101446.31;5060501;28;19925;-87
2021/12/11 08:34:07;;;;;;;;;;;;;;;14.86;47.59;101441.91;5061873;28;19917;-86
2021/12/11 08:36:33;;;;;;;;;;;;;;;15.18;46.72;101444.66;5061145;28;19939;-86
2021/12/11 08:38:59;;;;;;;;;;;;;;;15.12;46.50;101452.31;5061844;28;19917;-86
2021/12/11 08:41:27;;;;;;;;;;;;;;;15.01;46.67;101458.38;5062421;28;19924;-86
2021/12/11 08:43:59;;;;;;;;;;;;;;;14.68;47.58;101472.91;5061276;28;19910;-86
2021/12/11 08:46:28;;;;;;;;;;;;;;;15.07;47.03;101464.34;5061160;28;20289;-86
2021/12/11 08:48:55;;;;;;;;;;;;;;;15.17;46.86;101469.28;5060480;28;19916;-85
2021/12/11 08:51:30;;;;;;;;;;;;;;;15.33;46.51;101481.06;5059086;28;19967;-85
2021/12/11 08:53:56;;;;;;;;;;;;;;;15.73;46.08;101483.28;5059603;28;19939;-85
2021/12/11 08:56:23;;;;;;;;;;;;;;;15.85;45.57;101488.09;5060004;28;20382;-86
2021/12/11 08:58:48;;;;;;;;;;;;;;;16.12;45.52;101476.44;5059925;28;19916;-86
2021/12/11 09:01:27;;;;;;;;;;;;;;;15.94;45.75;101486.63;5062068;28;19931;-85
2021/12/11 09:04:22;;;;;;;;;;;;;;;16.22;45.50;101496.75;5060139;28;20354;-86
2021/12/11 09:06:53;;;;;;;;;;;;;;;16.36;45.15;101498.63;5030382;28;19917;-86
2021/12/11 09:09:47;;;;;;;;;;;;;;;15.86;45.66;101506.19;5060142;28;19955;-87
2021/12/11 09:12:20;;;;;;;;;;;;;;;15.36;46.70;101505.41;4990539;28;20407;-86
2021/12/11 09:14:55;;;;;;;;;;;;;;;15.27;46.98;101513.25;5060421;28;20432;-86
2021/12/11 09:17:23;;;;;;;;;;;;;;;15.20;47.27;101512.72;5060108;28;19924;-88
2021/12/11 09:19:52;;;;;;;;;;;;;;;15.59;46.44;101516.84;5044086;28;19921;-87
2021/12/11 09:22:26;;;;;;;;;;;;;;;15.84;45.55;101513.59;5060105;28;20370;-85
2021/12/11 09:24:58;;;;;;;;;;;;;;;15.84;45.22;101520.91;5059644;28;19928;-87
2021/12/11 09:27:30;;;;;;;;;;;;;;;15.22;46.19;101529.88;5043273;28;19917;-85
2021/12/11 09:29:57;;;;;;;;;;;;;;;14.89;47.18;101533.50;5060691;28;19923;-87
2021/12/11 09:32:26;;;;;;;;;;;;;;;15.29;46.57;101538.56;5059768;28;20079;-88
2021/12/11 09:34:58;;;;;;;;;;;;;;;15.46;46.72;101538.50;5042338;28;20015;-86
2021/12/11 09:37:24;;;;;;;;;;;;;;;15.97;45.75;101542.88;5058549;28;19917;-86
2021/12/11 09:39:52;;;;;;;;;;;;;;;15.90;46.50;101545.97;5058748;28;19917;-87
2021/12/11 09:42:17;;;;;;;;;;;;;;;16.24;46.07;101538.50;5061054;28;19917;-87
2021/12/11 09:44:47;;;;;;;;;;;;;;;16.04;46.31;101544.28;5043898;28;20012;-86
2021/12/11 09:47:18;;;;;;;;;;;;;;;15.31;46.52;101559.34;5060522;28;19921;-88
2021/12/11 09:49:46;;;;;;;;;;;;;;;15.24;47.83;101558.78;5060062;28;20282;-86
2021/12/11 09:52:17;;;;;;;;;;;;;;;15.88;46.67;101557.94;5059559;28;19925;-85
2021/12/11 09:54:51;;;;;;;;;;;;;;;16.45;45.79;101554.56;5058996;28;19928;-84
2021/12/11 09:57:19;;;;;;;;;;;;;;;16.26;45.42;101561.13;5059368;28;19917;-86
2021/12/11 09:59:46;;;;;;;;;;;;;;;16.51;45.65;101558.78;5060674;28;19966;-87
2021/12/11 10:02:17;;;;;;;;;;;;;;;15.49;46.77;101565.59;5058117;28;19929;-84
2021/12/11 10:04:47;;;;;;;;;;;;;;;15.77;46.83;101572.19;5058470;28;19917;-86
2021/12/11 10:07:32;;;;;;;;;;;;;;;16.66;44.63;101566.00;5042360;28;19917;-86
2021/12/11 10:10:17;;;;;;;;;;;;;;;16.37;45.27;101573.28;5041743;28;19917;-86
2021/12/11 10:12:46;;;;;;;;;;;;;;;15.60;46.69;101593.13;5041913;28;19916;-88
2021/12/11 10:15:23;;;;;;;;;;;;;;;15.87;46.20;101592.56;5058979;28;19923;-85
2021/12/11 10:17:51;;;;;;;;;;;;;;;15.57;47.14;101593.31;5058287;28;19940;-84
2021/12/11 10:20:23;;;;;;;;;;;;;;;16.72;45.01;101603.00;5059109;28;19913;-85
2021/12/11 10:22:50;;;;;;;;;;;;;;;16.69;44.92;101597.75;5059271;28;19917;-84
2021/12/11 10:25:17;;;;;;;;;;;;;;;17.12;43.67;101595.97;5059785;28;19939;-86
2021/12/11 10:27:43;;;;;;;;;;;;;;;16.85;44.60;101604.03;5058236;28;20370;-85
2021/12/11 10:30:11;;;;;;;;;;;;;;;16.17;46.60;101613.56;5048760;28;19928;-86
2021/12/11 10:32:36;;;;;;;;;;;;;;;17.61;42.76;101600.13;5041329;28;19922;-85
2021/12/11 10:35:05;;;;;;;;;;;;;;;16.24;45.13;101617.66;5020572;28;19987;-85
2021/12/11 10:37:35;;;;;;;;;;;;;;;17.64;43.54;101608.13;5038627;28;19929;-86
2021/12/11 10:40:05;;;;;;;;;;;;;;;16.39;45.10;101612.28;5045560;28;19924;-85
2021/12/11 10:42:32;;;;;;;;;;;;;;;17.66;43.17;101599.81;5048657;28;19924;-90
2021/12/11 10:44:58;;;;;;;;;;;;;;;17.15;44.36;101609.44;5044744;28;19921;-87
2021/12/11 10:47:29;;;;;;;;;;;;;;;17.62;42.22;101607.38;5055967;28;19947;-85
2021/12/11 10:49:55;;;;;;;;;;;;;;;18.35;41.86;101614.41;5044660;28;19912;-85
2021/12/11 10:52:21;;;;;;;;;;;;;;;18.05;41.07;101626.44;5045663;28;19980;-87
2021/12/11 10:54:48;;;;;;;;;;;;;;;18.22;41.54;101622.59;5035025;28;19971;-89
2021/12/11 10:57:15;;;;;;;;;;;;;;;17.02;42.64;101624.00;5030387;28;20000;-86
2021/12/11 10:59:42;;;;;;;;;;;;;;;16.63;45.46;101620.84;5050129;28;19917;-87
2021/12/11 11:02:17;;;;;;;;;;;;;;;17.73;42.75;101616.75;5048612;28;19929;-89
2021/12/11 11:04:47;;;;;;;;;;;;;;;17.75;43.29;101639.41;5065457;28;19996;-89
2021/12/11 11:07:13;;;;;;;;;;;;;;;17.90;42.83;101624.72;5062461;28;19924;-90
2021/12/11 11:09:39;;;;;;;;;;;;;;;18.39;41.51;101629.66;5042672;28;19917;-87
2021/12/11 11:12:06;;;;;;;;;;;;;;;17.32;43.33;101637.59;5043426;28;20385;-88
2021/12/11 11:14:32;;;;;;;;;;;;;;;16.68;45.91;101639.69;5054719;28;19994;-91
2021/12/11 11:17:02;;;;;;;;;;;;;;;15.44;48.20;101652.22;5063481;28;19945;-89
2021/12/11 11:19:28;;;;;;;;;;;;;;;14.49;51.46;101658.13;5045241;28;19917;-92
2021/12/11 11:21:57;;;;;;;;;;;;;;;15.76;48.58;101654.97;5053086;28;19925;-90
2021/12/11 11:24:25;;;;;;;;;;;;;;;15.19;50.33;101658.16;5029991;28;19924;-88
2021/12/11 11:26:50;;;;;;;;;;;;;;;15.59;49.55;101654.13;5030110;28;19917;-89
2021/12/11 11:29:18;;;;;;;;;;;;;;;15.54;49.44;101658.06;5036042;28;19931;-88
2021/12/11 11:31:44;;;;;;;;;;;;;;;15.57;50.74;101653.31;5042884;28;19925;-86
2021/12/11 11:34:12;;;;;;;;;;;;;;;15.23;50.85;101654.28;5028255;28;19928;-87
2021/12/11 11:36:37;;;;;;;;;;;;;;;15.90;49.70;101665.19;5031726;28;19916;-88
2021/12/11 11:39:05;;;;;;;;;;;;;;;15.62;50.41;101663.09;5032251;28;19943;-86
2021/12/11 11:41:33;;;;;;;;;;;;;;;15.77;49.74;101659.50;5038540;28;19913;-88
2021/12/11 11:43:59;;;;;;;;;;;;;;;15.71;49.98;101677.06;5055542;28;19916;-87
2021/12/11 11:46:25;;;;;;;;;;;;;;;15.46;50.90;101683.03;5041479;28;19932;-86
2021/12/11 11:48:51;;;;;;;;;;;;;;;15.91;49.00;101684.19;5052975;28;19940;-87
2021/12/11 11:51:19;;;;;;;;;;;;;;;16.38;48.26;101685.16;5048570;28;20008;-87
2021/12/11 11:53:44;;;;;;;;;;;;;;;14.87;52.55;101690.69;5050478;28;19923;-87
2021/12/11 11:56:13;;;;;;;;;;;;;;;15.54;50.12;101696.25;5026249;28;19917;-87
2021/12/11 11:58:38;;;;;;;;;;;;;;;15.06;51.31;101690.63;5037340;28;19921;-86
2021/12/11 12:01:08;;;;;;;;;;;;;;;15.34;50.96;101692.75;5036699;28;19926;-85
2021/12/11 12:03:33;;;;;;;;;;;;;;;14.52;52.71;101697.00;5035273;28;19926;-84
2021/12/11 12:06:01;;;;;;;;;;;;;;;14.92;51.90;101698.66;5037375;28;19917;-84
2021/12/11 12:08:26;;;;;;;;;;;;;;;15.04;51.08;101708.91;5036867;28;19995;-85
2021/12/11 12:10:52;;;;;;;;;;;;;;;14.81;50.78;101713.72;5036391;28;19995;-86
2021/12/11 12:13:19;;;;;;;;;;;;;;;14.28;53.13;101704.53;5037015;28;19921;-86
2021/12/11 12:15:46;;;;;;;;;;;;;;;15.15;50.18;101701.03;5035527;28;20012;-87
2021/12/11 12:18:12;;;;;;;;;;;;;;;14.93;50.43;101700.41;5036286;28;19921;-85
2021/12/11 12:20:40;;;;;;;;;;;;;;;15.07;49.63;101695.97;5037941;28;19918;-88
2021/12/11 12:23:06;;;;;;;;;;;;;;;15.35;49.84;101708.16;5037324;28;20009;-90
2021/12/11 12:25:31;;;;;;;;;;;;;;;14.62;51.18;101710.16;5036459;28;19963;-86
2021/12/11 12:27:56;;;;;;;;;;;;;;;15.20;49.97;101706.22;5020848;28;19924;-87
2021/12/11 12:30:24;;;;;;;;;;;;;;;15.46;49.37;101710.31;5019775;28;19921;-85
2021/12/11 12:32:52;;;;;;;;;;;;;;;14.95;50.02;101703.94;5035785;28;19917;-88
2021/12/11 12:35:18;;;;;;;;;;;;;;;14.65;50.67;101712.72;5037068;28;19917;-85
2021/12/11 12:37:44;;;;;;;;;;;;;;;15.12;49.43;101713.94;5036361;28;19952;-85
2021/12/11 12:40:16;;;;;;;;;;;;;;;14.89;49.45;101719.63;5037607;28;20000;-83
2021/12/11 12:42:54;;;;;;;;;;;;;;;15.94;47.36;101716.75;5035431;28;19968;-83
2021/12/11 12:45:20;;;;;;;;;;;;;;;15.09;49.04;101731.34;5035779;28;19924;-90
2021/12/11 12:47:47;;;;;;;;;;;;;;;15.11;48.96;101734.84;5020956;28;20375;-83
2021/12/11 12:50:15;;;;;;;;;;;;;;;15.36;47.84;101730.84;5037372;28;19925;-88
2021/12/11 12:52:44;;;;;;;;;;;;;;;15.20;48.59;101733.50;5020831;28;20335;-88
2021/12/11 12:55:13;;;;;;;;;;;;;;;14.33;50.06;101728.81;5020278;28;19901;-88
2021/12/11 12:57:40;;;;;;;;;;;;;;;13.92;50.70;101732.56;5020571;28;19917;-87
2021/12/11 13:00:10;;;;;;;;;;;;;;;14.76;49.04;101737.56;5021495;28;19918;-91